Time;durP1;ratioP1;P1;durP2;ratioP2;P2;SDS_P1;SDS_P2;PMS_P1;PMS_P2;Temp;Humidity;BMP_temperature;BMP_pressure;BME280_temperature;BME280_humidity;BME280_pressure;Samples;Min_cycle;Max_cycle;Signal;HPM_P1;HPM_P2
2022/02/12 00:01:04;;;;;;;5.27;3.37;;;3.50;99.90;;;;;;5010360;28;20189;-56
2022/02/12 00:03:29;;;;;;;6.70;2.80;;;3.50;99.90;;;;;;5014668;28;20677;-59
2022/02/12 00:05:55;;;;;;;5.97;3.80;;;3.50;99.90;;;;;;5015184;28;20219;-57
2022/02/12 00:08:21;;;;;;;7.30;3.43;;;3.40;99.90;;;;;;5031533;28;20179;-54
2022/02/12 00:10:46;;;;;;;10.77;3.43;;;3.50;99.90;;;;;;5024341;28;20268;-55
2022/02/12 00:13:12;;;;;;;9.70;3.90;;;3.50;99.90;;;;;;5018510;28;20190;-60
2022/02/12 00:15:39;;;;;;;4.10;3.17;;;3.50;99.90;;;;;;5019477;28;20574;-58
2022/02/12 00:18:05;;;;;;;5.30;3.17;;;3.60;99.90;;;;;;5018270;28;20222;-57
2022/02/12 00:20:31;;;;;;;6.37;3.20;;;3.60;99.90;;;;;;5031782;28;20168;-58
2022/02/12 00:22:56;;;;;;;4.20;3.23;;;3.60;99.90;;;;;;5031936;28;20768;-53
2022/02/12 00:25:22;;;;;;;8.17;3.53;;;3.60;99.90;;;;;;5013687;28;20238;-52
2022/02/12 00:27:47;;;;;;;7.63;3.23;;;3.60;99.90;;;;;;5032072;28;20175;-55
2022/02/12 00:30:13;;;;;;;6.03;3.43;;;3.80;99.90;;;;;;5025235;28;20239;-57
2022/02/12 00:32:39;;;;;;;6.87;3.27;;;3.80;99.90;;;;;;5012224;28;20180;-54
2022/02/12 00:35:05;;;;;;;5.23;3.07;;;3.80;99.90;;;;;;5011569;28;20220;-57
2022/02/12 00:37:31;;;;;;;8.17;3.20;;;3.80;99.90;;;;;;5012192;28;20219;-56
2022/02/12 00:39:57;;;;;;;7.37;3.53;;;3.80;99.90;;;;;;5011922;28;20650;-60
2022/02/12 00:42:23;;;;;;;4.43;3.10;;;3.70;99.90;;;;;;5011841;28;20172;-56
2022/02/12 00:44:49;;;;;;;5.23;3.33;;;3.60;99.90;;;;;;5011004;28;20215;-59
2022/02/12 00:47:14;;;;;;;6.47;3.60;;;3.60;99.90;;;;;;5011899;28;20558;-58
2022/02/12 00:49:40;;;;;;;5.37;3.63;;;3.50;99.90;;;;;;5011814;28;20183;-55
2022/02/12 00:52:06;;;;;;;5.77;3.70;;;3.50;99.90;;;;;;5011648;28;20767;-54
2022/02/12 00:54:32;;;;;;;5.83;2.90;;;3.40;99.90;;;;;;4995204;28;20720;-59
2022/02/12 00:57:01;;;;;;;5.10;3.37;;;3.40;99.90;;;;;;5011890;28;20165;-56
2022/02/12 00:59:27;;;;;;;4.53;3.27;;;3.40;99.90;;;;;;5018464;28;20184;-56
2022/02/12 01:01:53;;;;;;;4.10;3.13;;;3.30;99.90;;;;;;5031484;28;20168;-54
2022/02/12 01:04:19;;;;;;;6.30;3.90;;;3.30;99.90;;;;;;5031171;28;20198;-58
2022/02/12 01:06:44;;;;;;;6.87;3.33;;;3.30;99.90;;;;;;5031227;28;20298;-57
2022/02/12 01:09:10;;;;;;;7.33;3.87;;;3.20;99.90;;;;;;5031099;28;20299;-57
2022/02/12 01:11:35;;;;;;;7.40;3.67;;;3.20;99.90;;;;;;5031540;28;20172;-55
2022/02/12 01:14:01;;;;;;;6.47;3.23;;;3.60;99.90;;;;;;5031267;28;20164;-60
2022/02/12 01:16:27;;;;;;;5.50;3.50;;;3.40;99.90;;;;;;5031456;28;20203;-60
2022/02/12 01:18:52;;;;;;;7.30;4.13;;;3.50;99.90;;;;;;5031135;28;20168;-58
2022/02/12 01:21:19;;;;;;;6.67;4.10;;;3.50;99.90;;;;;;5034627;28;20195;-58
2022/02/12 01:23:46;;;;;;;7.57;3.83;;;3.50;99.90;;;;;;5035436;28;20172;-60
2022/02/12 01:26:11;;;;;;;8.77;4.20;;;3.60;99.90;;;;;;5034830;28;20203;-58
2022/02/12 01:28:37;;;;;;;4.93;3.40;;;3.80;99.90;;;;;;5035164;28;20183;-60
2022/02/12 01:31:02;;;;;;;5.83;3.83;;;3.90;99.90;;;;;;5017306;28;20270;-60
2022/02/12 01:33:28;;;;;;;8.30;4.03;;;3.90;99.90;;;;;;5035213;28;20247;-60
2022/02/12 01:35:53;;;;;;;7.03;3.80;;;3.90;99.90;;;;;;5034575;28;20196;-54
2022/02/12 01:38:19;;;;;;;5.63;3.97;;;3.80;99.90;;;;;;5017156;28;20192;-60
2022/02/12 01:40:46;;;;;;;6.93;3.93;;;3.60;99.90;;;;;;5034865;28;20274;-58
2022/02/12 01:43:13;;;;;;;6.07;4.23;;;3.50;99.90;;;;;;5035046;28;20641;-60
2022/02/12 01:45:40;;;;;;;6.87;4.20;;;3.40;99.90;;;;;;5034754;28;20566;-59
2022/02/12 01:48:05;;;;;;;6.93;3.80;;;3.30;99.90;;;;;;5034580;28;20638;-58
2022/02/12 01:50:31;;;;;;;7.17;4.00;;;3.30;99.90;;;;;;5034782;28;20179;-60
2022/02/12 01:52:57;;;;;;;6.43;4.17;;;3.20;99.90;;;;;;5034542;28;20257;-58
2022/02/12 01:55:22;;;;;;;5.23;3.87;;;3.30;99.90;;;;;;5034647;28;20191;-57
2022/02/12 01:57:48;;;;;;;6.73;3.60;;;3.30;99.90;;;;;;5034568;28;20176;-56
2022/02/12 02:00:16;;;;;;;5.83;3.80;;;3.40;99.90;;;;;;5034518;28;20263;-59
2022/02/12 02:02:42;;;;;;;7.07;4.10;;;3.40;99.90;;;;;;5034556;28;20239;-60
2022/02/12 02:05:09;;;;;;;6.90;4.30;;;3.50;99.90;;;;;;5034270;28;20187;-60
2022/02/12 02:07:36;;;;;;;5.77;3.80;;;3.50;99.90;;;;;;5034428;28;20746;-60
2022/02/12 02:10:04;;;;;;;6.47;4.00;;;3.50;99.90;;;;;;5016239;28;20562;-56
2022/02/12 02:12:29;;;;;;;8.07;4.37;;;3.60;99.90;;;;;;5014706;28;20264;-60
2022/02/12 02:14:55;;;;;;;9.30;4.27;;;3.70;99.90;;;;;;5014251;28;20279;-60
2022/02/12 02:17:20;;;;;;;7.07;4.10;;;3.80;99.90;;;;;;5002456;28;20180;-60
2022/02/12 02:19:47;;;;;;;8.00;4.27;;;3.90;99.90;;;;;;5013747;28;20650;-60
2022/02/12 02:22:14;;;;;;;8.87;4.30;;;4.00;99.90;;;;;;5014202;28;20176;-60
2022/02/12 02:24:40;;;;;;;8.63;4.13;;;4.00;99.90;;;;;;5014023;28;20611;-59
2022/02/12 02:27:08;;;;;;;6.23;4.00;;;3.90;99.90;;;;;;5014317;28;20251;-60
2022/02/12 02:29:36;;;;;;;5.33;3.87;;;4.00;99.90;;;;;;5014093;28;20172;-60
2022/02/12 02:32:02;;;;;;;7.30;4.00;;;3.90;99.90;;;;;;5014148;28;20173;-60
2022/02/12 02:34:28;;;;;;;10.00;4.57;;;3.80;99.90;;;;;;5013994;28;20203;-58
2022/02/12 02:36:53;;;;;;;6.57;4.47;;;3.80;99.90;;;;;;5013811;28;20180;-60
2022/02/12 02:39:19;;;;;;;7.70;4.57;;;3.70;99.90;;;;;;5014084;28;20168;-60
2022/02/12 02:41:45;;;;;;;9.70;4.63;;;3.60;99.90;;;;;;5014012;28;20206;-60
2022/02/12 02:44:11;;;;;;;9.07;5.07;;;3.50;99.90;;;;;;5014097;28;20653;-62
2022/02/12 02:46:36;;;;;;;8.57;4.60;;;3.50;99.90;;;;;;5013850;28;20299;-61
2022/02/12 02:49:02;;;;;;;9.20;6.10;;;3.50;99.90;;;;;;5013981;28;20169;-62
2022/02/12 02:56:56;;;;;;;8.07;4.07;;;3.60;99.90;;;;;;5013872;28;20167;-56
2022/02/12 02:59:21;;;;;;;10.40;4.30;;;3.60;99.90;;;;;;5013461;28;20177;-55
2022/02/12 03:01:52;;;;;;;6.63;4.50;;;3.60;99.90;;;;;;5013814;28;20176;-57
2022/02/12 03:04:19;;;;;;;8.17;4.63;;;3.70;99.90;;;;;;5013327;28;20200;-55
2022/02/12 03:06:44;;;;;;;8.03;3.73;;;3.70;99.90;;;;;;5013138;28;20206;-56
2022/02/12 03:09:10;;;;;;;6.97;4.07;;;3.80;99.90;;;;;;5013285;28;20188;-54
2022/02/12 03:11:35;;;;;;;8.27;4.43;;;3.90;99.90;;;;;;5013556;28;20682;-56
2022/02/12 03:14:01;;;;;;;7.43;4.03;;;3.90;99.90;;;;;;5013268;28;20638;-56
2022/02/12 03:16:27;;;;;;;7.80;4.33;;;3.80;99.90;;;;;;5013353;28;20637;-54
2022/02/12 03:18:53;;;;;;;6.43;3.60;;;3.80;99.90;;;;;;5013258;28;20173;-59
2022/02/12 03:21:18;;;;;;;5.97;3.57;;;3.80;99.90;;;;;;5013248;28;20179;-56
2022/02/12 03:23:44;;;;;;;4.70;3.70;;;3.90;99.90;;;;;;5013369;28;20175;-57
2022/02/12 03:26:10;;;;;;;8.17;3.97;;;3.90;99.90;;;;;;5012854;28;20232;-57
2022/02/12 03:28:36;;;;;;;7.77;3.70;;;4.00;99.90;;;;;;5013137;28;20222;-55
2022/02/12 03:31:02;;;;;;;5.73;3.77;;;4.10;99.90;;;;;;5012914;28;20173;-56
2022/02/12 03:33:28;;;;;;;6.73;3.70;;;4.20;99.90;;;;;;5011959;28;20234;-56
2022/02/12 03:35:54;;;;;;;7.77;3.67;;;4.30;99.90;;;;;;5012589;28;20204;-56
2022/02/12 03:38:24;;;;;;;4.73;3.53;;;4.30;99.90;;;;;;5011745;28;20629;-57
2022/02/12 03:40:51;;;;;;;5.60;3.60;;;4.30;99.90;;;;;;5012878;28;20164;-57
2022/02/12 03:43:17;;;;;;;9.43;4.20;;;4.40;99.90;;;;;;5012464;28;20179;-56
2022/02/12 03:45:44;;;;;;;7.67;4.20;;;4.40;99.90;;;;;;5012598;28;20204;-58
2022/02/12 03:48:10;;;;;;;7.87;4.03;;;4.30;99.90;;;;;;5012639;28;20640;-54
2022/02/12 03:50:36;;;;;;;5.77;3.90;;;4.30;99.90;;;;;;5012901;28;20164;-58
2022/02/12 03:53:04;;;;;;;6.40;3.87;;;4.40;99.90;;;;;;5012636;28;20161;-56
2022/02/12 03:55:31;;;;;;;8.00;4.70;;;4.30;99.90;;;;;;5012573;28;20193;-55
2022/02/12 03:57:57;;;;;;;7.90;4.53;;;4.40;99.90;;;;;;5012551;28;20984;-54
2022/02/12 04:00:23;;;;;;;8.17;4.33;;;4.40;99.90;;;;;;5012707;28;20187;-56
2022/02/12 04:02:49;;;;;;;9.50;4.57;;;4.30;99.90;;;;;;5012565;28;20165;-54
2022/02/12 04:05:16;;;;;;;7.80;4.23;;;4.40;99.90;;;;;;5012421;28;20254;-59
2022/02/12 04:07:43;;;;;;;6.00;4.30;;;4.40;99.90;;;;;;5012565;28;20181;-59
2022/02/12 04:10:11;;;;;;;8.33;4.13;;;4.40;99.90;;;;;;5011865;28;20173;-60
2022/02/12 04:12:37;;;;;;;6.67;4.20;;;4.40;99.90;;;;;;5011163;28;20184;-57
2022/02/12 04:15:04;;;;;;;9.23;4.50;;;4.30;99.90;;;;;;5011784;28;20700;-61
2022/02/12 04:17:34;;;;;;;6.17;4.47;;;4.30;99.90;;;;;;5010728;28;20262;-61
2022/02/12 04:20:08;;;;;;;8.53;4.90;;;4.70;99.90;;;;;;4996293;28;20168;-59
2022/02/12 04:22:34;;;;;;;7.17;4.10;;;4.40;99.90;;;;;;5012131;28;20314;-60
2022/02/12 04:25:01;;;;;;;6.03;4.03;;;4.50;99.90;;;;;;5011769;28;20215;-57
2022/02/12 04:27:27;;;;;;;7.40;4.77;;;4.60;99.90;;;;;;5012392;28;20198;-58
2022/02/12 04:29:53;;;;;;;7.77;4.40;;;4.60;99.90;;;;;;5012050;28;20697;-58
2022/02/12 04:32:20;;;;;;;7.07;4.43;;;4.60;99.90;;;;;;5012353;28;20589;-57
2022/02/12 04:34:47;;;;;;;7.27;4.40;;;4.60;99.90;;;;;;5012086;28;20327;-56
2022/02/12 04:37:13;;;;;;;5.90;4.27;;;4.60;99.90;;;;;;5011881;28;20251;-58
2022/02/12 04:39:38;;;;;;;7.43;4.27;;;4.60;99.90;;;;;;5011926;28;20251;-57
2022/02/12 04:42:09;;;;;;;6.03;4.30;;;4.70;99.90;;;;;;5012125;28;20175;-57
2022/02/12 04:44:35;;;;;;;7.03;4.27;;;4.70;99.90;;;;;;5011919;28;20181;-58
2022/02/12 04:47:01;;;;;;;7.47;5.07;;;4.70;99.90;;;;;;5011916;28;20663;-53
2022/02/12 04:49:26;;;;;;;8.30;4.93;;;4.70;99.90;;;;;;5011918;28;20658;-58
2022/02/12 04:51:52;;;;;;;7.53;5.00;;;4.70;99.90;;;;;;5011731;28;20168;-56
2022/02/12 04:54:17;;;;;;;8.33;4.70;;;4.70;99.90;;;;;;5010963;28;20196;-59
2022/02/12 04:56:43;;;;;;;6.27;3.97;;;4.60;99.90;;;;;;5011942;28;20173;-57
2022/02/12 04:59:09;;;;;;;9.27;4.50;;;4.60;99.90;;;;;;5011692;28;20169;-58
2022/02/12 05:01:34;;;;;;;9.63;4.97;;;4.50;99.90;;;;;;5012056;28;20542;-60
2022/02/12 05:04:00;;;;;;;6.00;4.20;;;4.50;99.90;;;;;;5011734;28;20173;-57
2022/02/12 05:06:26;;;;;;;6.37;4.43;;;4.40;99.90;;;;;;5011457;28;20210;-59
2022/02/12 05:08:51;;;;;;;8.37;5.10;;;4.40;99.90;;;;;;5011685;28;20172;-57
2022/02/12 05:11:17;;;;;;;7.83;5.20;;;4.30;99.90;;;;;;5011833;28;20649;-60
2022/02/12 05:13:42;;;;;;;11.27;6.30;;;4.20;99.90;;;;;;5011640;28;20180;-60
2022/02/12 05:16:08;;;;;;;10.53;5.90;;;3.90;99.90;;;;;;5011533;28;20556;-57
2022/02/12 05:18:34;;;;;;;11.17;6.20;;;3.60;99.90;;;;;;5010274;28;20176;-61
2022/02/12 05:21:00;;;;;;;8.47;5.20;;;3.60;99.90;;;;;;5011559;28;20580;-58
2022/02/12 05:23:25;;;;;;;9.63;5.63;;;3.60;99.90;;;;;;5011667;28;20176;-58
2022/02/12 05:25:51;;;;;;;8.30;5.67;;;3.60;99.90;;;;;;5010888;28;20569;-59
2022/02/12 05:28:17;;;;;;;7.80;5.27;;;3.60;99.90;;;;;;5011182;28;20213;-56
2022/02/12 05:30:43;;;;;;;7.93;5.30;;;3.50;99.90;;;;;;5011601;28;20836;-56
2022/02/12 05:33:09;;;;;;;9.03;5.60;;;3.40;99.90;;;;;;5011788;28;20169;-55
2022/02/12 05:35:35;;;;;;;10.13;5.60;;;3.40;99.90;;;;;;5011568;28;20200;-59
2022/02/12 05:38:00;;;;;;;11.70;5.77;;;3.50;99.90;;;;;;5011435;28;20173;-57
2022/02/12 05:40:26;;;;;;;11.80;6.07;;;3.50;99.90;;;;;;5011640;28;20699;-53
2022/02/12 05:42:52;;;;;;;10.77;6.47;;;3.50;99.90;;;;;;5011606;28;20239;-59
2022/02/12 05:45:17;;;;;;;10.27;6.63;;;3.50;99.90;;;;;;5011380;28;20338;-59
2022/02/12 05:47:43;;;;;;;13.30;7.77;;;3.50;99.90;;;;;;5011525;28;20172;-58
2022/02/12 05:50:10;;;;;;;10.50;6.40;;;3.40;99.90;;;;;;5011260;28;20616;-57
2022/02/12 05:52:36;;;;;;;10.17;6.93;;;3.30;99.90;;;;;;5011313;28;20562;-59
2022/02/12 05:55:03;;;;;;;10.57;7.67;;;3.10;99.90;;;;;;5011268;28;20200;-56
2022/02/12 05:57:28;;;;;;;10.17;7.30;;;3.00;99.90;;;;;;5011479;28;20180;-60
2022/02/12 05:59:54;;;;;;;10.07;7.37;;;3.10;99.90;;;;;;5011337;28;20794;-57
2022/02/12 06:02:19;;;;;;;8.80;6.03;;;3.20;99.90;;;;;;5011479;28;20216;-57
2022/02/12 06:04:45;;;;;;;11.27;6.93;;;3.20;99.90;;;;;;5009770;28;20209;-58
2022/02/12 06:07:10;;;;;;;10.40;6.53;;;3.20;99.90;;;;;;5014080;28;20188;-59
2022/02/12 06:09:37;;;;;;;9.63;6.30;;;3.20;99.90;;;;;;5014612;28;20180;-59
2022/02/12 06:12:04;;;;;;;9.80;6.43;;;3.30;99.90;;;;;;5014845;28;20565;-56
2022/02/12 06:14:29;;;;;;;11.13;6.87;;;3.30;99.90;;;;;;5014359;28;20283;-61
2022/02/12 06:16:58;;;;;;;14.10;7.13;;;3.30;99.90;;;;;;5014592;28;20502;-59
2022/02/12 06:19:23;;;;;;;9.87;6.50;;;3.30;99.90;;;;;;5014064;28;20176;-54
2022/02/12 06:21:49;;;;;;;10.50;7.07;;;3.20;99.90;;;;;;5014555;28;20570;-57
2022/02/12 06:24:15;;;;;;;11.93;7.50;;;3.20;99.90;;;;;;5014118;28;20176;-57
2022/02/12 06:26:46;;;;;;;12.03;8.43;;;3.10;99.90;;;;;;5014236;28;20534;-60
2022/02/12 06:29:12;;;;;;;12.03;7.97;;;3.20;99.90;;;;;;5014370;28;20800;-53
2022/02/12 06:31:37;;;;;;;13.53;7.93;;;3.10;99.90;;;;;;5014265;28;20189;-60
2022/02/12 06:34:03;;;;;;;12.90;8.03;;;3.10;99.90;;;;;;5014207;28;20206;-60
2022/02/12 06:36:28;;;;;;;13.20;7.73;;;3.10;99.90;;;;;;5014030;28;20213;-57
2022/02/12 06:38:54;;;;;;;12.50;8.00;;;3.10;99.90;;;;;;5012725;28;20630;-54
2022/02/12 06:41:20;;;;;;;12.40;7.50;;;3.10;99.90;;;;;;5013586;28;21167;-59
2022/02/12 06:43:45;;;;;;;11.70;7.87;;;3.10;99.90;;;;;;5014040;28;20180;-60
2022/02/12 06:46:11;;;;;;;11.87;7.07;;;3.10;99.90;;;;;;5012711;28;20200;-58
2022/02/12 06:48:36;;;;;;;11.63;7.00;;;3.10;99.90;;;;;;4996329;28;20204;-56
2022/02/12 06:51:02;;;;;;;13.47;7.40;;;3.10;99.90;;;;;;5013937;28;20542;-58
2022/02/12 06:53:28;;;;;;;11.77;7.53;;;3.10;99.90;;;;;;5013795;28;20181;-59
2022/02/12 06:55:54;;;;;;;11.93;7.20;;;3.10;99.90;;;;;;5013947;28;20254;-56
2022/02/12 06:58:19;;;;;;;11.43;7.53;;;3.20;99.90;;;;;;5013946;28;20180;-58
2022/02/12 07:00:45;;;;;;;12.20;8.63;;;3.20;99.90;;;;;;4996345;28;20223;-57
2022/02/12 07:03:11;;;;;;;12.27;8.23;;;3.30;99.90;;;;;;4996302;28;20195;-58
2022/02/12 07:05:36;;;;;;;11.87;7.97;;;3.30;99.90;;;;;;5013433;28;20223;-58
2022/02/12 07:08:02;;;;;;;11.43;7.77;;;3.40;99.90;;;;;;5013490;28;20546;-58
2022/02/12 07:10:29;;;;;;;21.37;13.97;;;3.50;99.90;;;;;;5013724;28;20235;-60
2022/02/12 07:12:54;;;;;;;26.43;15.63;;;3.60;99.90;;;;;;5013658;28;20175;-57
2022/02/12 07:15:20;;;;;;;16.00;8.80;;;3.70;99.90;;;;;;5013388;28;20204;-59
2022/02/12 07:17:46;;;;;;;13.17;8.43;;;3.80;99.90;;;;;;5012556;28;20187;-59
2022/02/12 07:20:12;;;;;;;13.67;7.57;;;4.00;99.90;;;;;;5013174;28;20181;-55
2022/02/12 07:22:40;;;;;;;12.97;7.30;;;4.20;99.90;;;;;;5013424;28;20184;-60
2022/02/12 07:25:07;;;;;;;14.93;9.40;;;4.40;99.90;;;;;;5013030;28;20207;-59
2022/02/12 07:27:32;;;;;;;11.87;7.03;;;4.60;99.90;;;;;;5013450;28;20649;-60
2022/02/12 07:29:58;;;;;;;14.90;8.00;;;4.90;99.90;;;;;;5012990;28;20238;-58
2022/02/12 07:32:24;;;;;;;12.07;6.90;;;5.30;99.90;;;;;;5013284;28;20175;-62
2022/02/12 07:34:49;;;;;;;8.80;6.33;;;5.60;99.90;;;;;;5012802;28;20197;-60
2022/02/12 07:37:15;;;;;;;10.40;6.67;;;6.10;99.90;;;;;;5013152;28;20208;-61
2022/02/12 07:39:41;;;;;;;11.37;7.87;;;6.60;99.90;;;;;;5012860;28;20296;-60
2022/02/12 07:42:06;;;;;;;9.80;6.20;;;7.20;99.90;;;;;;5013182;28;20172;-60
2022/02/12 07:44:32;;;;;;;9.83;7.07;;;8.00;99.90;;;;;;5012915;28;20681;-62
2022/02/12 07:46:57;;;;;;;8.43;7.20;;;8.70;99.90;;;;;;5012822;28;20287;-61
2022/02/12 07:49:23;;;;;;;7.67;5.33;;;9.20;99.90;;;;;;5012703;28;20646;-62
2022/02/12 07:51:48;;;;;;;8.23;5.20;;;9.90;99.90;;;;;;5012899;28;20172;-61
2022/02/12 07:54:14;;;;;;;5.50;4.73;;;10.60;99.90;;;;;;5012783;28;20179;-62
2022/02/12 07:56:39;;;;;;;6.07;4.70;;;11.40;99.90;;;;;;5012965;28;20180;-63
2022/02/12 07:59:05;;;;;;;6.53;4.60;;;12.20;99.90;;;;;;5012743;28;20177;-61
2022/02/12 08:01:31;;;;;;;4.93;4.03;;;12.90;98.30;;;;;;5012585;28;20176;-62
2022/02/12 08:03:59;;;;;;;5.67;4.17;;;13.50;97.70;;;;;;5012717;28;20230;-63
2022/02/12 08:09:10;;;;;;;5.40;3.90;;;15.30;93.80;;;;;;5012452;28;20167;-63
2022/02/12 08:11:42;;;;;;;6.23;4.00;;;16.20;92.40;;;;;;5012625;28;20616;-61
2022/02/12 08:14:07;;;;;;;4.40;3.60;;;17.40;91.30;;;;;;5012668;28;20530;-60
2022/02/12 08:16:33;;;;;;;4.27;3.87;;;18.90;86.40;;;;;;5012796;28;20172;-60
2022/02/12 08:18:58;;;;;;;4.05;3.58;;;19.80;82.10;;;;;;5012400;28;20170;-61
2022/02/12 08:21:24;;;;;;;4.90;3.67;;;20.70;77.60;;;;;;5012664;28;20178;-57
2022/02/12 08:23:50;;;;;;;4.72;3.67;;;21.60;74.10;;;;;;5012541;28;20173;-60
2022/02/12 08:26:15;;;;;;;4.43;3.70;;;22.20;70.90;;;;;;5012199;28;20693;-59
2022/02/12 08:28:41;;;;;;;4.18;3.47;;;23.40;67.90;;;;;;5011892;28;20175;-59
2022/02/12 08:31:07;;;;;;;4.25;3.50;;;24.10;63.50;;;;;;5012333;28;20234;-59
2022/02/12 08:33:33;;;;;;;5.22;3.60;;;24.60;60.80;;;;;;5012150;28;20264;-59
2022/02/12 08:35:58;;;;;;;4.47;3.50;;;25.00;58.60;;;;;;5012071;28;20201;-59
2022/02/12 08:38:24;;;;;;;5.43;3.22;;;25.40;56.00;;;;;;5012058;28;20222;-59
2022/02/12 08:40:50;;;;;;;4.97;3.42;;;25.60;55.20;;;;;;5012035;28;20661;-58
2022/02/12 08:43:15;;;;;;;4.22;3.17;;;25.90;54.10;;;;;;5013735;28;20234;-60
2022/02/12 08:45:41;;;;;;;3.60;3.22;;;26.10;53.20;;;;;;5020212;28;20596;-57
2022/02/12 08:48:09;;;;;;;6.03;3.97;;;24.90;52.40;;;;;;5024456;28;20637;-57
2022/02/12 08:50:35;;;;;;;4.03;3.47;;;22.70;53.70;;;;;;5022880;28;20183;-56
2022/02/12 08:53:01;;;;;;;4.40;3.47;;;20.70;56.00;;;;;;5024598;28;20592;-60
2022/02/12 08:55:28;;;;;;;5.20;3.93;;;19.00;58.10;;;;;;5012437;28;20203;-59
2022/02/12 08:57:54;;;;;;;4.80;3.80;;;17.40;60.70;;;;;;5030802;28;20742;-57
2022/02/12 09:00:20;;;;;;;5.57;3.70;;;16.00;64.40;;;;;;5030531;28;20172;-60
2022/02/12 09:02:46;;;;;;;4.90;4.07;;;15.00;67.40;;;;;;5029230;28;20176;-60
2022/02/12 09:05:12;;;;;;;4.73;3.67;;;14.30;69.70;;;;;;5030313;28;20289;-55
2022/02/12 09:07:37;;;;;;;4.30;3.50;;;13.70;71.40;;;;;;5030121;28;20189;-61
2022/02/12 09:10:03;;;;;;;4.77;3.60;;;13.00;74.10;;;;;;5012677;28;20183;-60
2022/02/12 09:12:29;;;;;;;5.03;3.40;;;12.70;76.60;;;;;;5023483;28;20186;-59
2022/02/12 09:14:55;;;;;;;4.73;3.90;;;12.40;78.50;;;;;;5016637;28;20783;-60
2022/02/12 09:17:20;;;;;;;5.00;3.93;;;12.50;80.50;;;;;;5015085;28;20268;-56
2022/02/12 09:19:47;;;;;;;4.27;3.57;;;12.60;79.90;;;;;;5025798;28;20649;-58
2022/02/12 09:22:12;;;;;;;4.43;3.60;;;12.80;80.20;;;;;;5026209;28;20208;-61
2022/02/12 09:24:38;;;;;;;6.13;3.73;;;12.90;80.30;;;;;;5017286;28;20204;-59
2022/02/12 09:27:04;;;;;;;3.50;2.73;;;13.90;81.20;;;;;;5015002;28;20208;-56
2022/02/12 09:29:30;;;;;;;3.67;2.60;;;16.60;77.20;;;;;;5008024;28;20255;-60
2022/02/12 09:31:55;;;;;;;3.92;2.72;;;19.40;70.20;;;;;;4994879;28;20786;-60
2022/02/12 09:34:21;;;;;;;2.20;1.92;;;22.30;63.40;;;;;;5005613;28;20574;-61
2022/02/12 09:36:46;;;;;;;2.35;2.10;;;24.80;58.50;;;;;;4993654;28;20542;-60
2022/02/12 09:39:12;;;;;;;2.00;1.83;;;26.60;53.20;;;;;;5010927;28;20169;-56
2022/02/12 09:41:37;;;;;;;2.50;1.90;;;27.80;50.20;;;;;;5013346;28;20181;-58
2022/02/12 09:44:03;;;;;;;1.77;1.67;;;28.90;47.40;;;;;;5015349;28;20238;-61
2022/02/12 09:46:32;;;;;;;2.40;1.90;;;30.10;43.90;;;;;;5008478;28;20197;-61
2022/02/12 09:48:59;;;;;;;1.60;1.50;;;30.80;42.90;;;;;;4995232;28;20173;-61
2022/02/12 09:51:26;;;;;;;1.70;1.55;;;31.90;39.60;;;;;;4995422;28;20169;-60
2022/02/12 09:53:52;;;;;;;1.85;1.35;;;31.90;39.20;;;;;;4995422;28;20193;-60
2022/02/12 09:56:18;;;;;;;2.08;1.60;;;31.70;38.70;;;;;;5000661;28;20208;-59
2022/02/12 09:58:44;;;;;;;1.30;1.20;;;30.70;37.00;;;;;;5014911;28;20173;-61
2022/02/12 10:01:10;;;;;;;1.63;1.40;;;30.00;39.20;;;;;;5005623;28;20239;-62
2022/02/12 10:03:38;;;;;;;1.55;1.45;;;29.80;37.60;;;;;;4987625;28;20192;-60
2022/02/12 10:06:04;;;;;;;1.30;1.20;;;27.80;38.20;;;;;;5005204;28;20250;-56
2022/02/12 10:08:30;;;;;;;1.40;1.30;;;27.10;40.40;;;;;;5003097;28;20185;-61
2022/02/12 10:10:55;;;;;;;1.33;1.20;;;28.10;39.60;;;;;;4990181;28;20174;-60
2022/02/12 10:13:22;;;;;;;1.90;1.10;;;28.20;38.30;;;;;;5002266;28;20184;-62
2022/02/12 10:16:02;;;;;;;1.60;1.10;;;26.90;38.60;;;;;;5003375;28;20328;-60
2022/02/12 10:18:30;;;;;;;0.77;0.77;;;25.80;39.70;;;;;;5002950;28;20650;-61
2022/02/12 10:20:56;;;;;;;1.30;1.02;;;26.40;39.30;;;;;;5005322;28;20188;-62
2022/02/12 10:23:27;;;;;;;1.05;0.80;;;27.30;37.40;;;;;;5003645;28;20251;-59
2022/02/12 10:26:02;;;;;;;0.80;0.80;;;28.00;37.50;;;;;;5001496;28;20295;-59
2022/02/12 10:28:32;;;;;;;1.10;0.77;;;28.90;36.50;;;;;;5002794;28;20165;-60
2022/02/12 10:30:58;;;;;;;1.85;0.90;;;30.00;35.80;;;;;;5003385;28;20176;-64
2022/02/12 10:33:26;;;;;;;1.23;0.90;;;30.40;33.20;;;;;;4987517;28;20180;-61
2022/02/12 10:35:59;;;;;;;1.55;1.10;;;29.00;35.60;;;;;;4985082;28;20559;-62
2022/02/12 10:38:27;;;;;;;0.82;0.70;;;29.70;35.60;;;;;;4988671;28;20180;-63
2022/02/12 10:41:12;;;;;;;1.20;1.10;;;31.00;34.70;;;;;;5014580;28;20661;-63
2022/02/12 10:43:40;;;;;;;1.27;0.93;;;32.50;33.50;;;;;;5005458;28;20352;-62
2022/02/12 10:46:06;;;;;;;1.30;1.27;;;34.30;32.80;;;;;;4983376;28;20197;-62
2022/02/12 10:48:36;;;;;;;1.42;1.33;;;34.30;31.00;;;;;;5007986;28;20181;-62
2022/02/12 10:51:05;;;;;;;1.88;1.38;;;34.10;31.00;;;;;;4982551;28;20177;-61
2022/02/12 10:53:30;;;;;;;1.30;1.20;;;33.90;31.00;;;;;;5015184;28;20546;-62
2022/02/12 10:56:03;;;;;;;1.30;1.20;;;34.30;30.80;;;;;;5003922;28;20279;-63
2022/02/12 10:58:29;;;;;;;2.13;1.45;;;34.70;30.30;;;;;;4987014;28;20235;-63
2022/02/12 11:00:55;;;;;;;2.08;1.60;;;34.70;29.70;;;;;;4979701;28;20169;-60
2022/02/12 11:03:21;;;;;;;2.45;1.52;;;33.60;29.90;;;;;;5007341;28;20172;-60
2022/02/12 11:05:52;;;;;;;1.85;1.52;;;32.70;30.40;;;;;;4976488;28;20211;-62
2022/02/12 11:08:22;;;;;;;1.42;1.17;;;32.00;31.00;;;;;;4985043;28;20288;-61
2022/02/12 11:10:48;;;;;;;1.58;1.45;;;31.60;31.70;;;;;;5005048;28;20184;-63
2022/02/12 11:13:14;;;;;;;2.15;1.20;;;32.50;30.50;;;;;;5004931;28;20173;-61
2022/02/12 11:15:40;;;;;;;1.65;1.30;;;32.60;30.00;;;;;;4988444;28;20196;-62
2022/02/12 11:18:10;;;;;;;1.48;1.10;;;32.40;30.40;;;;;;5005309;28;20185;-62
2022/02/12 11:20:38;;;;;;;1.50;1.40;;;32.60;30.30;;;;;;4992904;28;20267;-62
2022/02/12 11:23:18;;;;;;;1.20;1.10;;;33.00;29.10;;;;;;5011621;28;20589;-61
2022/02/12 11:25:45;;;;;;;1.40;1.30;;;32.60;29.60;;;;;;5018592;28;20196;-59
2022/02/12 11:28:11;;;;;;;2.42;1.33;;;32.70;29.30;;;;;;5015656;28;20661;-62
2022/02/12 11:30:39;;;;;;;1.55;1.30;;;33.20;29.20;;;;;;5013023;28;20181;-63
2022/02/12 11:33:22;;;;;;;1.33;1.23;;;32.70;29.10;;;;;;5016529;28;20650;-62
2022/02/12 11:36:14;;;;;;;1.10;1.10;;;32.10;29.70;;;;;;5011371;28;20199;-62
2022/02/12 11:38:44;;;;;;;1.40;1.30;;;30.30;30.30;;;;;;5011159;28;20177;-62
2022/02/12 11:41:23;;;;;;;1.35;1.25;;;29.40;31.30;;;;;;4987967;28;20177;-61
2022/02/12 11:46:41;;;;;;;1.60;1.48;;;28.80;31.30;;;;;;4986209;28;20225;-63
2022/02/12 11:49:33;;;;;;;1.20;1.10;;;29.10;31.20;;;;;;4990684;28;20177;-64
2022/02/12 11:52:02;;;;;;;1.20;1.10;;;29.60;31.20;;;;;;4993794;28;20180;-64
2022/02/12 11:54:56;;;;;;;1.77;1.30;;;29.60;31.40;;;;;;4991497;28;20196;-63
2022/02/12 11:57:27;;;;;;;1.23;1.20;;;30.00;30.10;;;;;;4984184;28;20272;-63
2022/02/12 11:59:59;;;;;;;1.48;1.30;;;29.50;30.50;;;;;;4981537;28;20277;-62
2022/02/12 12:02:41;;;;;;;0.90;0.90;;;28.40;31.30;;;;;;4980650;28;20203;-62
2022/02/12 12:05:15;;;;;;;1.63;1.45;;;27.90;31.40;;;;;;4989450;28;20243;-63
2022/02/12 12:08:15;;;;;;;1.27;1.17;;;27.60;32.10;;;;;;4976259;28;20181;-63
2022/02/12 12:10:51;;;;;;;1.30;1.20;;;27.40;29.30;;;;;;4922186;29;20233;-63
2022/02/12 12:13:17;;;;;;;1.38;1.00;;;26.50;31.50;;;;;;4913635;29;20982;-63
2022/02/12 12:15:49;;;;;;;1.40;1.30;;;26.70;32.20;;;;;;4913026;29;20219;-64
2022/02/12 12:18:16;;;;;;;1.35;1.20;;;26.70;32.90;;;;;;4914453;29;20263;-64
2022/02/12 12:20:43;;;;;;;1.77;1.50;;;26.40;32.60;;;;;;4932165;29;20225;-64
2022/02/12 12:23:12;;;;;;;1.63;1.50;;;27.10;33.30;;;;;;4932937;29;20307;-64
2022/02/12 12:25:53;;;;;;;1.67;1.58;;;27.40;32.50;;;;;;4932126;29;20298;-65
2022/02/12 12:28:40;;;;;;;1.38;1.27;;;28.10;32.30;;;;;;4932958;29;20227;-63
2022/02/12 12:31:07;;;;;;;1.70;1.40;;;27.60;31.90;;;;;;4924019;29;20276;-63
2022/02/12 12:33:38;;;;;;;2.38;1.30;;;26.80;32.20;;;;;;4921646;29;20570;-63
2022/02/12 12:36:10;;;;;;;1.33;1.23;;;25.60;33.30;;;;;;4922655;29;20195;-63
2022/02/12 12:38:46;;;;;;;1.35;1.25;;;23.90;34.30;;;;;;4923274;29;20692;-61
2022/02/12 12:41:31;;;;;;;2.85;1.50;;;22.40;36.10;;;;;;4923880;29;20287;-63
2022/02/12 12:44:12;;;;;;;1.40;1.30;;;21.70;38.00;;;;;;4923565;29;20250;-63
2022/02/12 12:46:41;;;;;;;1.77;1.40;;;21.40;37.00;;;;;;4971985;28;20213;-63
2022/02/12 12:49:08;;;;;;;1.50;1.40;;;20.70;38.30;;;;;;4992124;28;20186;-63
2022/02/12 12:51:35;;;;;;;1.30;1.20;;;20.40;38.20;;;;;;4992760;28;20166;-64
2022/02/12 12:54:02;;;;;;;1.10;1.00;;;20.70;39.60;;;;;;4991567;28;20184;-63
2022/02/12 12:56:28;;;;;;;1.33;1.23;;;21.50;37.10;;;;;;4989629;28;20188;-62
2022/02/12 12:59:01;;;;;;;1.00;0.90;;;21.60;36.80;;;;;;4990531;28;20262;-64
2022/02/12 13:01:26;;;;;;;1.20;1.10;;;21.10;36.70;;;;;;4989876;28;20173;-64